Mare I — 3FIH6 — position and weather

sailwx.info

Track history (hours):
 
Tides and Currents Weather Stations Pressure Air Temp Water Temp Dewpoint Dewpoint Depression Visibility Wind Speed Wind Dir Waves Ship Positions

Mare I

Last reported at 2018-Jan-12 15:01 UTC. Time now 2018-Jan-19 02:00 UTC.
Position N 37°53' E 023°09'.

Length 111 m; draft 5.4 m.

Type: Cargo ship. MMSI: 357387000.

Date/timePositionNaut miles runAvg speedWind from/ knotsBaromVisibWave heightAir tempDewpointWater temp
2018-Jan-12 15:01N 37°53' E 023°09'5 9.6
2018-Jan-12 14:31N 37°54' E 023°03'4 4.4
2018-Jan-12 13:31N 37°57' E 022°58'0 3.5
2018-Jan-12 13:30N 37°57' E 022°58'2 4.0
2018-Jan-12 13:00N 37°58' E 022°56'1 1.9
2018-Jan-12 12:30N 37°58' E 022°55'0 0.6
2018-Jan-12 12:01N 37°58' E 022°55'0 0.8
2018-Jan-12 11:30N 37°58' E 022°55'2 4.3
2018-Jan-12 11:00N 37°59' E 022°53'510.4
2018-Jan-12 10:30N 38°02' E 022°47'  
2018-Jan-09 22:17N 44°24' E 014°12'2 8.7
2018-Jan-09 22:00N 44°26' E 014°12'4 8.6
2018-Jan-09 21:31N 44°30' E 014°10'4 8.1
2018-Jan-09 21:00N 44°34' E 014°09'4 7.7
2018-Jan-09 20:30N 44°38' E 014°08'4 7.7
2018-Jan-09 20:00N 44°41' E 014°07'4 8.2
2018-Jan-09 19:30N 44°46' E 014°06'  
2018-Jan-07 01:03N 44°49' E 014°08'610.3
2018-Jan-07 00:30N 44°45' E 014°02'510.1
2018-Jan-07 00:00N 44°42' E 013°56'4 8.3
2018-Jan-06 23:30N 44°43' E 013°51'710.1
2018-Jan-06 22:52N 44°48' E 013°44'410.2
2018-Jan-06 22:30N 44°50' E 013°41'510.3
2018-Jan-06 22:00N 44°54' E 013°36'510.3
2018-Jan-06 21:30N 44°58' E 013°32'510.3
2018-Jan-06 21:00N 45°03' E 013°29'510.4
2018-Jan-06 20:30N 45°08' E 013°27'510.4
2018-Jan-06 20:00N 45°13' E 013°26'510.2
2018-Jan-06 19:30N 45°18' E 013°24'510.2
2018-Jan-06 19:00N 45°23' E 013°22'510.2
2018-Jan-06 18:31N 45°28' E 013°21'510.5
2018-Jan-06 18:00N 45°33' E 013°19'4 9.0
2018-Jan-06 17:30N 45°35' E 013°24'510.8
2018-Jan-06 17:01N 45°37' E 013°31'5 9.2
2018-Jan-06 16:30N 45°36' E 013°38'4 8.9
2018-Jan-06 16:00N 45°34' E 013°43'1 1.5
2018-Jan-06 15:20N 45°33' E 013°44'0 0.0
2018-Jan-06 14:56N 45°33' E 013°44'0 0.0
2018-Jan-06 14:29N 45°33' E 013°44'0 0.0
2018-Jan-06 13:59N 45°33' E 013°44'0 0.0
2018-Jan-06 13:29N 45°33' E 013°44'0 0.0
2018-Jan-06 12:59N 45°33' E 013°44'0 0.1
2018-Jan-06 12:29N 45°34' E 013°44'0 0.1
2018-Jan-06 11:59N 45°33' E 013°44'0 0.0
2018-Jan-06 11:29N 45°33' E 013°44'0 0.1
2018-Jan-06 10:59N 45°33' E 013°44'0 0.0
2018-Jan-06 10:29N 45°33' E 013°44'0 0.0
2018-Jan-06 09:56N 45°33' E 013°44'0 0.0
2018-Jan-06 09:23N 45°33' E 013°44'0 0.1
2018-Jan-06 08:59N 45°33' E 013°44'0 0.0
2018-Jan-06 08:26N 45°33' E 013°44'0 0.0
2018-Jan-06 07:56N 45°33' E 013°44'0 0.0
2018-Jan-06 07:29N 45°33' E 013°44'0 0.0
2018-Jan-06 06:59N 45°33' E 013°44'0 0.0
2018-Jan-06 06:29N 45°33' E 013°44'0 0.0
2018-Jan-06 05:59N 45°33' E 013°44'0 0.0
2018-Jan-06 05:29N 45°33' E 013°44'0 0.0
2018-Jan-06 04:59N 45°33' E 013°44'0 0.0
2018-Jan-06 04:29N 45°33' E 013°44'0 0.0
2018-Jan-06 03:59N 45°33' E 013°44'0 0.0
2018-Jan-06 03:23N 45°33' E 013°44'0 0.0
2018-Jan-06 02:59N 45°33' E 013°44'0 0.0
2018-Jan-06 02:26N 45°33' E 013°44'0 0.0
2018-Jan-06 01:56N 45°33' E 013°44'0 0.0
2018-Jan-06 01:29N 45°33' E 013°44'0 0.0
2018-Jan-06 00:59N 45°33' E 013°44'0 0.0
2018-Jan-06 00:29N 45°33' E 013°44'0 0.1
2018-Jan-05 23:59N 45°33' E 013°44'0 0.1
2018-Jan-05 23:29N 45°33' E 013°44'0 0.0
2018-Jan-05 22:50N 45°33' E 013°44'0 0.0
2018-Jan-05 22:26N 45°33' E 013°44'0 0.0
2018-Jan-05 21:56N 45°33' E 013°44'0 0.2
2018-Jan-05 21:29N 45°34' E 013°44'0 0.1
2018-Jan-05 20:59N 45°33' E 013°44'0 0.0
2018-Jan-05 20:29N 45°33' E 013°44'0 0.0
2018-Jan-05 19:59N 45°33' E 013°44'0 0.0
2018-Jan-05 19:29N 45°33' E 013°44'0 0.0
2018-Jan-05 18:56N 45°33' E 013°44'0 0.0
2018-Jan-05 18:26N 45°33' E 013°44'0 0.0
2018-Jan-05 17:59N 45°33' E 013°44'0 0.0
2018-Jan-05 17:29N 45°33' E 013°44'0 0.0
2018-Jan-05 16:59N 45°33' E 013°44'0 0.0
2018-Jan-05 16:29N 45°33' E 013°44'0 0.0
2018-Jan-05 15:59N 45°33' E 013°44'0 0.0
2018-Jan-05 15:17N 45°33' E 013°44'0 0.0
2018-Jan-05 14:59N 45°33' E 013°44'0 0.0
2018-Jan-05 14:29N 45°33' E 013°44'0 0.0
2018-Jan-05 13:59N 45°33' E 013°44'0 0.0
2018-Jan-05 13:26N 45°33' E 013°44'0 0.0
2018-Jan-05 12:59N 45°33' E 013°44'0 0.0
2018-Jan-05 12:25N 45°33' E 013°44'0 0.0
2018-Jan-05 11:55N 45°33' E 013°44'0 0.0
2018-Jan-05 11:19N 45°33' E 013°44'0 0.0
2018-Jan-05 10:46N 45°33' E 013°44'0 0.0
2018-Jan-05 10:28N 45°33' E 013°44'0 0.0
2018-Jan-05 09:58N 45°33' E 013°44'0 0.0
2018-Jan-05 09:22N 45°33' E 013°44'0 0.0
2018-Jan-05 08:52N 45°33' E 013°44'0 0.0
2018-Jan-05 08:25N 45°33' E 013°44'0 0.0
2018-Jan-05 07:52N 45°33' E 013°44'0 0.0
2018-Jan-05 07:10N 45°33' E 013°44'0 0.1
2018-Jan-05 06:58N 45°33' E 013°44'0 0.0
2018-Jan-05 06:28N 45°33' E 013°44'0 0.1
2018-Jan-05 05:52N 45°33' E 013°44'0 0.0
2018-Jan-05 03:22N 45°33' E 013°44'0 0.0
2018-Jan-05 02:55N 45°33' E 013°44'0 0.0
2018-Jan-05 02:28N 45°33' E 013°44'0 0.0
2018-Jan-05 01:58N 45°33' E 013°44'0 0.0
2018-Jan-05 01:28N 45°33' E 013°44'0 0.0
2018-Jan-05 00:52N 45°33' E 013°44'0 0.0
2018-Jan-05 00:28N 45°33' E 013°44'0 0.0
2018-Jan-04 23:58N 45°33' E 013°44'0 0.1
2018-Jan-04 23:28N 45°33' E 013°44'0 0.0
2018-Jan-04 22:58N 45°33' E 013°44'0 0.0
2018-Jan-04 22:28N 45°33' E 013°44'0 0.0
2018-Jan-04 21:58N 45°33' E 013°44'0 0.0
2018-Jan-04 21:25N 45°33' E 013°44'0 0.0
2018-Jan-04 20:52N 45°33' E 013°44'0 0.0
2018-Jan-04 20:22N 45°33' E 013°44'0 0.0
2018-Jan-04 19:58N 45°33' E 013°44'0 0.0
2018-Jan-04 19:28N 45°33' E 013°44'0 0.0
2018-Jan-04 18:37N 45°33' E 013°44'0 0.4
2018-Jan-04 18:28N 45°34' E 013°44'0 0.1
2018-Jan-04 17:58N 45°33' E 013°44'0 0.0
2018-Jan-04 17:28N 45°33' E 013°44'0 0.0
2018-Jan-04 16:58N 45°33' E 013°44'0 0.1
2018-Jan-04 16:25N 45°34' E 013°44'0 0.1
2018-Jan-04 15:58N 45°33' E 013°44'0 0.0
2018-Jan-04 15:22N 45°33' E 013°44'0 0.0
2018-Jan-04 14:58N 45°33' E 013°44'0 0.0
2018-Jan-04 14:28N 45°33' E 013°44'0 0.0
2018-Jan-04 13:58N 45°33' E 013°44'0 0.0
2018-Jan-04 13:28N 45°33' E 013°44'0 0.0
2018-Jan-04 12:49N 45°33' E 013°44'0 0.0
2018-Jan-04 12:25N 45°33' E 013°44'0 0.0
2018-Jan-04 11:58N 45°33' E 013°44'0 0.0
2018-Jan-04 11:28N 45°33' E 013°44'0 0.0
2018-Jan-04 10:58N 45°33' E 013°44'0 0.0
2018-Jan-04 10:28N 45°33' E 013°44'0 0.0
2018-Jan-04 09:58N 45°33' E 013°44'0 0.0
2018-Jan-04 09:28N 45°33' E 013°44'0 0.0
2018-Jan-04 08:58N 45°33' E 013°44'0 0.0
2018-Jan-04 08:28N 45°33' E 013°44'0 0.0
2018-Jan-04 07:58N 45°33' E 013°44'0 0.0
2018-Jan-04 07:25N 45°33' E 013°44'0 0.0
2018-Jan-04 06:58N 45°33' E 013°44'0 0.0
2018-Jan-04 06:25N 45°33' E 013°44'0 0.0
2018-Jan-04 05:52N 45°33' E 013°44'0 0.0
2018-Jan-04 05:28N 45°33' E 013°44'0 0.0
2018-Jan-04 04:58N 45°33' E 013°44'0 0.0
2018-Jan-04 04:25N 45°33' E 013°44'0 0.0
2018-Jan-04 03:55N 45°33' E 013°44'0 0.0
2018-Jan-04 03:25N 45°33' E 013°44'0 0.0
2018-Jan-04 02:58N 45°33' E 013°44'0 0.0
2018-Jan-04 02:28N 45°33' E 013°44'0 0.0
2018-Jan-04 01:58N 45°33' E 013°44'0 0.0
2018-Jan-04 01:28N 45°33' E 013°44'0 0.0
2018-Jan-04 00:58N 45°33' E 013°44'0 0.1
2018-Jan-04 00:28N 45°33' E 013°44'0 0.0
2018-Jan-03 23:58N 45°33' E 013°44'0 0.0
2018-Jan-03 23:28N 45°33' E 013°44'0 0.0
2018-Jan-03 22:55N 45°33' E 013°44'0 0.0
2018-Jan-03 22:28N 45°33' E 013°44'0 0.0
2018-Jan-03 21:55N 45°33' E 013°44'0 0.0
2018-Jan-03 21:28N 45°33' E 013°44'0 0.0
2018-Jan-03 20:58N 45°33' E 013°44'0 0.0
2018-Jan-03 20:28N 45°33' E 013°44'0 0.0
2018-Jan-03 19:58N 45°33' E 013°44'0 0.0
2018-Jan-03 19:25N 45°33' E 013°44'0 0.0
2018-Jan-03 18:55N 45°33' E 013°44'0 0.0
2018-Jan-03 18:25N 45°33' E 013°44'0 0.0
2018-Jan-03 17:58N 45°33' E 013°44'0 0.0
2018-Jan-03 17:28N 45°33' E 013°44'0 0.0
2018-Jan-03 16:49N 45°33' E 013°44'0 0.0
2018-Jan-03 16:25N 45°33' E 013°44'0 0.0
2018-Jan-03 15:58N 45°33' E 013°44'0 0.0
2018-Jan-03 15:28N 45°33' E 013°44'0 0.0
2018-Jan-03 14:55N 45°33' E 013°44'0 0.0
2018-Jan-03 14:22N 45°33' E 013°44'0 0.1
2018-Jan-03 13:55N 45°33' E 013°44'0 0.1
2018-Jan-03 13:28N 45°33' E 013°44'0 0.0
2018-Jan-03 12:55N 45°33' E 013°44'0 0.0
2018-Jan-03 12:28N 45°33' E 013°44'0 0.0
2018-Jan-03 11:55N 45°33' E 013°44'0 0.0
2018-Jan-03 11:22N 45°33' E 013°44'0 0.0
2018-Jan-03 10:52N 45°33' E 013°44'0 0.0
2018-Jan-03 10:28N 45°33' E 013°44'0 0.0
2018-Jan-03 09:52N 45°33' E 013°44'0 0.0
2018-Jan-03 09:16N 45°33' E 013°44'0 0.0
2018-Jan-03 08:58N 45°33' E 013°44'0 0.0
2018-Jan-03 08:19N 45°33' E 013°44'0 0.0
2018-Jan-03 07:58N 45°33' E 013°44'0 0.0
2018-Jan-03 07:28N 45°33' E 013°44'0 0.5
2018-Jan-03 06:58N 45°33' E 013°44'1 2.8
2018-Jan-03 06:31N 45°34' E 013°42'1 2.1
2018-Jan-03 06:00N 45°35' E 013°41'0 0.0
2018-Jan-03 05:27N 45°35' E 013°41'0 0.0
2018-Jan-03 05:00N 45°35' E 013°41'0 0.0
2018-Jan-03 04:30N 45°35' E 013°41'0 0.0
2018-Jan-03 03:57N 45°35' E 013°41'0 0.0
2018-Jan-03 03:30N 45°34' E 013°41'0 0.0
2018-Jan-03 03:00N 45°35' E 013°41'0 0.0
2018-Jan-03 02:30N 45°35' E 013°41'0 0.0
2018-Jan-03 01:54N 45°35' E 013°41'0 0.0
2018-Jan-03 01:30N 45°35' E 013°41'0 0.0
2018-Jan-03 01:00N 45°35' E 013°41'0 0.1
2018-Jan-03 00:30N 45°35' E 013°41'0 0.0
2018-Jan-02 23:57N 45°35' E 013°41'0 0.0
2018-Jan-02 23:30N 45°35' E 013°41'0 0.0
2018-Jan-02 23:00N 45°35' E 013°41'0 0.0
2018-Jan-02 22:30N 45°35' E 013°41'0 0.0
2018-Jan-02 21:57N 45°35' E 013°41'0 0.0
2018-Jan-02 21:27N 45°35' E 013°41'0 0.0
2018-Jan-02 21:00N 45°35' E 013°41'0 0.0
2018-Jan-02 20:30N 45°35' E 013°41'0 0.1
2018-Jan-02 19:57N 45°35' E 013°41'0 0.0
2018-Jan-02 19:30N 45°35' E 013°41'0 0.1
2018-Jan-02 18:51N 45°35' E 013°41'0 0.1
2018-Jan-02 18:30N 45°34' E 013°41'0 0.1
2018-Jan-02 17:51N 45°34' E 013°41'0 0.0
2018-Jan-02 17:27N 45°34' E 013°41'0 0.0
2018-Jan-02 17:00N 45°34' E 013°41'0 0.0
2018-Jan-02 15:48N 45°34' E 013°41'0 0.0
2018-Jan-02 15:30N 45°34' E 013°41'  
Track history (hours):
 
Tides and Currents Weather Stations Pressure Air Temp Water Temp Dewpoint Dewpoint Depression Visibility Wind Speed Wind Dir Waves Ship Positions

Mare I

Last reported at 2018-Jan-12 15:01 UTC. Time now 2018-Jan-19 02:00 UTC.
Position N 37°53' E 023°09'.

Length 111 m; draft 5.4 m.

Type: Cargo ship. MMSI: 357387000.

Date/timePositionNaut miles runAvg speedWind from/ knotsBaromVisibWave heightAir tempDewpointWater temp
2018-Jan-12 15:01N 37°53' E 023°09'5 9.6
2018-Jan-12 14:31N 37°54' E 023°03'4 4.4
2018-Jan-12 13:31N 37°57' E 022°58'0 3.5
2018-Jan-12 13:30N 37°57' E 022°58'2 4.0
2018-Jan-12 13:00N 37°58' E 022°56'1 1.9
2018-Jan-12 12:30N 37°58' E 022°55'0 0.6
2018-Jan-12 12:01N 37°58' E 022°55'0 0.8
2018-Jan-12 11:30N 37°58' E 022°55'2 4.3
2018-Jan-12 11:00N 37°59' E 022°53'510.4
2018-Jan-12 10:30N 38°02' E 022°47'  
2018-Jan-09 22:17N 44°24' E 014°12'2 8.7
2018-Jan-09 22:00N 44°26' E 014°12'4 8.6
2018-Jan-09 21:31N 44°30' E 014°10'4 8.1
2018-Jan-09 21:00N 44°34' E 014°09'4 7.7
2018-Jan-09 20:30N 44°38' E 014°08'4 7.7
2018-Jan-09 20:00N 44°41' E 014°07'4 8.2
2018-Jan-09 19:30N 44°46' E 014°06'  
2018-Jan-07 01:03N 44°49' E 014°08'610.3
2018-Jan-07 00:30N 44°45' E 014°02'510.1
2018-Jan-07 00:00N 44°42' E 013°56'4 8.3
2018-Jan-06 23:30N 44°43' E 013°51'710.1
2018-Jan-06 22:52N 44°48' E 013°44'410.2
2018-Jan-06 22:30N 44°50' E 013°41'510.3
2018-Jan-06 22:00N 44°54' E 013°36'510.3
2018-Jan-06 21:30N 44°58' E 013°32'510.3
2018-Jan-06 21:00N 45°03' E 013°29'510.4
2018-Jan-06 20:30N 45°08' E 013°27'510.4
2018-Jan-06 20:00N 45°13' E 013°26'510.2
2018-Jan-06 19:30N 45°18' E 013°24'510.2
2018-Jan-06 19:00N 45°23' E 013°22'510.2
2018-Jan-06 18:31N 45°28' E 013°21'510.5
2018-Jan-06 18:00N 45°33' E 013°19'4 9.0
2018-Jan-06 17:30N 45°35' E 013°24'510.8
2018-Jan-06 17:01N 45°37' E 013°31'5 9.2
2018-Jan-06 16:30N 45°36' E 013°38'4 8.9
2018-Jan-06 16:00N 45°34' E 013°43'1 1.5
2018-Jan-06 15:20N 45°33' E 013°44'0 0.0
2018-Jan-06 14:56N 45°33' E 013°44'0 0.0
2018-Jan-06 14:29N 45°33' E 013°44'0 0.0
2018-Jan-06 13:59N 45°33' E 013°44'0 0.0
2018-Jan-06 13:29N 45°33' E 013°44'0 0.0
2018-Jan-06 12:59N 45°33' E 013°44'0 0.1
2018-Jan-06 12:29N 45°34' E 013°44'0 0.1
2018-Jan-06 11:59N 45°33' E 013°44'0 0.0
2018-Jan-06 11:29N 45°33' E 013°44'0 0.1
2018-Jan-06 10:59N 45°33' E 013°44'0 0.0
2018-Jan-06 10:29N 45°33' E 013°44'0 0.0
2018-Jan-06 09:56N 45°33' E 013°44'0 0.0
2018-Jan-06 09:23N 45°33' E 013°44'0 0.1
2018-Jan-06 08:59N 45°33' E 013°44'0 0.0
2018-Jan-06 08:26N 45°33' E 013°44'0 0.0
2018-Jan-06 07:56N 45°33' E 013°44'0 0.0
2018-Jan-06 07:29N 45°33' E 013°44'0 0.0
2018-Jan-06 06:59N 45°33' E 013°44'0 0.0
2018-Jan-06 06:29N 45°33' E 013°44'0 0.0
2018-Jan-06 05:59N 45°33' E 013°44'0 0.0
2018-Jan-06 05:29N 45°33' E 013°44'0 0.0
2018-Jan-06 04:59N 45°33' E 013°44'0 0.0
2018-Jan-06 04:29N 45°33' E 013°44'0 0.0
2018-Jan-06 03:59N 45°33' E 013°44'0 0.0
2018-Jan-06 03:23N 45°33' E 013°44'0 0.0
2018-Jan-06 02:59N 45°33' E 013°44'0 0.0
2018-Jan-06 02:26N 45°33' E 013°44'0 0.0
2018-Jan-06 01:56N 45°33' E 013°44'0 0.0
2018-Jan-06 01:29N 45°33' E 013°44'0 0.0
2018-Jan-06 00:59N 45°33' E 013°44'0 0.0
2018-Jan-06 00:29N 45°33' E 013°44'0 0.1
2018-Jan-05 23:59N 45°33' E 013°44'0 0.1
2018-Jan-05 23:29N 45°33' E 013°44'0 0.0
2018-Jan-05 22:50N 45°33' E 013°44'0 0.0
2018-Jan-05 22:26N 45°33' E 013°44'0 0.0
2018-Jan-05 21:56N 45°33' E 013°44'0 0.2
2018-Jan-05 21:29N 45°34' E 013°44'0 0.1
2018-Jan-05 20:59N 45°33' E 013°44'0 0.0
2018-Jan-05 20:29N 45°33' E 013°44'0 0.0
2018-Jan-05 19:59N 45°33' E 013°44'0 0.0
2018-Jan-05 19:29N 45°33' E 013°44'0 0.0
2018-Jan-05 18:56N 45°33' E 013°44'0 0.0
2018-Jan-05 18:26N 45°33' E 013°44'0 0.0
2018-Jan-05 17:59N 45°33' E 013°44'0 0.0
2018-Jan-05 17:29N 45°33' E 013°44'0 0.0
2018-Jan-05 16:59N 45°33' E 013°44'0 0.0
2018-Jan-05 16:29N 45°33' E 013°44'0 0.0
2018-Jan-05 15:59N 45°33' E 013°44'0 0.0
2018-Jan-05 15:17N 45°33' E 013°44'0 0.0
2018-Jan-05 14:59N 45°33' E 013°44'0 0.0
2018-Jan-05 14:29N 45°33' E 013°44'0 0.0
2018-Jan-05 13:59N 45°33' E 013°44'0 0.0
2018-Jan-05 13:26N 45°33' E 013°44'0 0.0
2018-Jan-05 12:59N 45°33' E 013°44'0 0.0
2018-Jan-05 12:25N 45°33' E 013°44'0 0.0
2018-Jan-05 11:55N 45°33' E 013°44'0 0.0
2018-Jan-05 11:19N 45°33' E 013°44'0 0.0
2018-Jan-05 10:46N 45°33' E 013°44'0 0.0
2018-Jan-05 10:28N 45°33' E 013°44'0 0.0
2018-Jan-05 09:58N 45°33' E 013°44'0 0.0
2018-Jan-05 09:22N 45°33' E 013°44'0 0.0
2018-Jan-05 08:52N 45°33' E 013°44'0 0.0
2018-Jan-05 08:25N 45°33' E 013°44'0 0.0
2018-Jan-05 07:52N 45°33' E 013°44'0 0.0
2018-Jan-05 07:10N 45°33' E 013°44'0 0.1
2018-Jan-05 06:58N 45°33' E 013°44'0 0.0
2018-Jan-05 06:28N 45°33' E 013°44'0 0.1
2018-Jan-05 05:52N 45°33' E 013°44'0 0.0
2018-Jan-05 03:22N 45°33' E 013°44'0 0.0
2018-Jan-05 02:55N 45°33' E 013°44'0 0.0
2018-Jan-05 02:28N 45°33' E 013°44'0 0.0
2018-Jan-05 01:58N 45°33' E 013°44'0 0.0
2018-Jan-05 01:28N 45°33' E 013°44'0 0.0
2018-Jan-05 00:52N 45°33' E 013°44'0 0.0
2018-Jan-05 00:28N 45°33' E 013°44'0 0.0
2018-Jan-04 23:58N 45°33' E 013°44'0 0.1
2018-Jan-04 23:28N 45°33' E 013°44'0 0.0
2018-Jan-04 22:58N 45°33' E 013°44'0 0.0
2018-Jan-04 22:28N 45°33' E 013°44'0 0.0
2018-Jan-04 21:58N 45°33' E 013°44'0 0.0
2018-Jan-04 21:25N 45°33' E 013°44'0 0.0
2018-Jan-04 20:52N 45°33' E 013°44'0 0.0
2018-Jan-04 20:22N 45°33' E 013°44'0 0.0
2018-Jan-04 19:58N 45°33' E 013°44'0 0.0
2018-Jan-04 19:28N 45°33' E 013°44'0 0.0
2018-Jan-04 18:37N 45°33' E 013°44'0 0.4
2018-Jan-04 18:28N 45°34' E 013°44'0 0.1
2018-Jan-04 17:58N 45°33' E 013°44'0 0.0
2018-Jan-04 17:28N 45°33' E 013°44'0 0.0
2018-Jan-04 16:58N 45°33' E 013°44'0 0.1
2018-Jan-04 16:25N 45°34' E 013°44'0 0.1
2018-Jan-04 15:58N 45°33' E 013°44'0 0.0
2018-Jan-04 15:22N 45°33' E 013°44'0 0.0
2018-Jan-04 14:58N 45°33' E 013°44'0 0.0
2018-Jan-04 14:28N 45°33' E 013°44'0 0.0
2018-Jan-04 13:58N 45°33' E 013°44'0 0.0
2018-Jan-04 13:28N 45°33' E 013°44'0 0.0
2018-Jan-04 12:49N 45°33' E 013°44'0 0.0
2018-Jan-04 12:25N 45°33' E 013°44'0 0.0
2018-Jan-04 11:58N 45°33' E 013°44'0 0.0
2018-Jan-04 11:28N 45°33' E 013°44'0 0.0
2018-Jan-04 10:58N 45°33' E 013°44'0 0.0
2018-Jan-04 10:28N 45°33' E 013°44'0 0.0
2018-Jan-04 09:58N 45°33' E 013°44'0 0.0
2018-Jan-04 09:28N 45°33' E 013°44'0 0.0
2018-Jan-04 08:58N 45°33' E 013°44'0 0.0
2018-Jan-04 08:28N 45°33' E 013°44'0 0.0
2018-Jan-04 07:58N 45°33' E 013°44'0 0.0
2018-Jan-04 07:25N 45°33' E 013°44'0 0.0
2018-Jan-04 06:58N 45°33' E 013°44'0 0.0
2018-Jan-04 06:25N 45°33' E 013°44'0 0.0
2018-Jan-04 05:52N 45°33' E 013°44'0 0.0
2018-Jan-04 05:28N 45°33' E 013°44'0 0.0
2018-Jan-04 04:58N 45°33' E 013°44'0 0.0
2018-Jan-04 04:25N 45°33' E 013°44'0 0.0
2018-Jan-04 03:55N 45°33' E 013°44'0 0.0
2018-Jan-04 03:25N 45°33' E 013°44'0 0.0
2018-Jan-04 02:58N 45°33' E 013°44'0 0.0
2018-Jan-04 02:28N 45°33' E 013°44'0 0.0
2018-Jan-04 01:58N 45°33' E 013°44'0 0.0
2018-Jan-04 01:28N 45°33' E 013°44'0 0.0
2018-Jan-04 00:58N 45°33' E 013°44'0 0.1
2018-Jan-04 00:28N 45°33' E 013°44'0 0.0
2018-Jan-03 23:58N 45°33' E 013°44'0 0.0
2018-Jan-03 23:28N 45°33' E 013°44'0 0.0
2018-Jan-03 22:55N 45°33' E 013°44'0 0.0
2018-Jan-03 22:28N 45°33' E 013°44'0 0.0
2018-Jan-03 21:55N 45°33' E 013°44'0 0.0
2018-Jan-03 21:28N 45°33' E 013°44'0 0.0
2018-Jan-03 20:58N 45°33' E 013°44'0 0.0
2018-Jan-03 20:28N 45°33' E 013°44'0 0.0
2018-Jan-03 19:58N 45°33' E 013°44'0 0.0
2018-Jan-03 19:25N 45°33' E 013°44'0 0.0
2018-Jan-03 18:55N 45°33' E 013°44'0 0.0
2018-Jan-03 18:25N 45°33' E 013°44'0 0.0
2018-Jan-03 17:58N 45°33' E 013°44'0 0.0
2018-Jan-03 17:28N 45°33' E 013°44'0 0.0
2018-Jan-03 16:49N 45°33' E 013°44'0 0.0
2018-Jan-03 16:25N 45°33' E 013°44'0 0.0
2018-Jan-03 15:58N 45°33' E 013°44'0 0.0
2018-Jan-03 15:28N 45°33' E 013°44'0 0.0
2018-Jan-03 14:55N 45°33' E 013°44'0 0.0
2018-Jan-03 14:22N 45°33' E 013°44'0 0.1
2018-Jan-03 13:55N 45°33' E 013°44'0 0.1
2018-Jan-03 13:28N 45°33' E 013°44'0 0.0
2018-Jan-03 12:55N 45°33' E 013°44'0 0.0
2018-Jan-03 12:28N 45°33' E 013°44'0 0.0
2018-Jan-03 11:55N 45°33' E 013°44'0 0.0
2018-Jan-03 11:22N 45°33' E 013°44'0 0.0
2018-Jan-03 10:52N 45°33' E 013°44'0 0.0
2018-Jan-03 10:28N 45°33' E 013°44'0 0.0
2018-Jan-03 09:52N 45°33' E 013°44'0 0.0
2018-Jan-03 09:16N 45°33' E 013°44'0 0.0
2018-Jan-03 08:58N 45°33' E 013°44'0 0.0
2018-Jan-03 08:19N 45°33' E 013°44'0 0.0
2018-Jan-03 07:58N 45°33' E 013°44'0 0.0
2018-Jan-03 07:28N 45°33' E 013°44'0 0.5
2018-Jan-03 06:58N 45°33' E 013°44'1 2.8
2018-Jan-03 06:31N 45°34' E 013°42'1 2.1
2018-Jan-03 06:00N 45°35' E 013°41'0 0.0
2018-Jan-03 05:27N 45°35' E 013°41'0 0.0
2018-Jan-03 05:00N 45°35' E 013°41'0 0.0
2018-Jan-03 04:30N 45°35' E 013°41'0 0.0
2018-Jan-03 03:57N 45°35' E 013°41'0 0.0
2018-Jan-03 03:30N 45°34' E 013°41'0 0.0
2018-Jan-03 03:00N 45°35' E 013°41'0 0.0
2018-Jan-03 02:30N 45°35' E 013°41'0 0.0
2018-Jan-03 01:54N 45°35' E 013°41'0 0.0
2018-Jan-03 01:30N 45°35' E 013°41'0 0.0
2018-Jan-03 01:00N 45°35' E 013°41'0 0.1
2018-Jan-03 00:30N 45°35' E 013°41'0 0.0
2018-Jan-02 23:57N 45°35' E 013°41'0 0.0
2018-Jan-02 23:30N 45°35' E 013°41'0 0.0
2018-Jan-02 23:00N 45°35' E 013°41'0 0.0
2018-Jan-02 22:30N 45°35' E 013°41'0 0.0
2018-Jan-02 21:57N 45°35' E 013°41'0 0.0
2018-Jan-02 21:27N 45°35' E 013°41'0 0.0
2018-Jan-02 21:00N 45°35' E 013°41'0 0.0
2018-Jan-02 20:30N 45°35' E 013°41'0 0.1
2018-Jan-02 19:57N 45°35' E 013°41'0 0.0
2018-Jan-02 19:30N 45°35' E 013°41'0 0.1
2018-Jan-02 18:51N 45°35' E 013°41'0 0.1
2018-Jan-02 18:30N 45°34' E 013°41'0 0.1
2018-Jan-02 17:51N 45°34' E 013°41'0 0.0
2018-Jan-02 17:27N 45°34' E 013°41'0 0.0
2018-Jan-02 17:00N 45°34' E 013°41'0 0.0
2018-Jan-02 15:48N 45°34' E 013°41'0 0.0
2018-Jan-02 15:30N 45°34' E 013°41'  

Dump ship's entire track history